sensor_id;sensor_type;location;lat;lon;timestamp;pressure;altitude;pressure_sealevel;temperature;humidity
58975;BME280;44751;52.236;5.178;2023-12-07T00:02:11;101814.72;;;7.82;95.76
58975;BME280;44751;52.236;5.178;2023-12-07T00:04:40;101820.06;;;7.72;96.43
58975;BME280;44751;52.236;5.178;2023-12-07T00:07:07;101823.16;;;7.67;96.02
58975;BME280;44751;52.236;5.178;2023-12-07T00:09:33;101821.19;;;7.69;95.84
58975;BME280;44751;52.236;5.178;2023-12-07T00:11:58;101827.66;;;7.57;95.75
58975;BME280;44751;52.236;5.178;2023-12-07T00:14:25;101819.59;;;7.57;95.57
58975;BME280;44751;52.236;5.178;2023-12-07T00:16:51;101816.00;;;7.46;96.06
58975;BME280;44751;52.236;5.178;2023-12-07T00:19:17;101818.88;;;7.55;96.18
58975;BME280;44751;52.236;5.178;2023-12-07T00:21:43;101821.25;;;7.48;95.94
58975;BME280;44751;52.236;5.178;2023-12-07T00:24:10;101813.75;;;7.52;96.59
58975;BME280;44751;52.236;5.178;2023-12-07T00:26:36;101815.66;;;7.61;96.09
58975;BME280;44751;52.236;5.178;2023-12-07T00:29:03;101810.00;;;7.74;95.61
58975;BME280;44751;52.236;5.178;2023-12-07T00:31:29;101814.59;;;7.83;95.75
58975;BME280;44751;52.236;5.178;2023-12-07T00:33:59;101798.44;;;7.73;96.16
58975;BME280;44751;52.236;5.178;2023-12-07T00:36:26;101801.63;;;7.57;95.75
58975;BME280;44751;52.236;5.178;2023-12-07T00:38:52;101796.16;;;7.69;95.38
58975;BME280;44751;52.236;5.178;2023-12-07T00:41:18;101802.41;;;7.38;96.06
58975;BME280;44751;52.236;5.178;2023-12-07T00:43:44;101801.72;;;7.46;95.72
58975;BME280;44751;52.236;5.178;2023-12-07T00:46:18;101798.41;;;7.64;95.67
58975;BME280;44751;52.236;5.178;2023-12-07T00:48:44;101804.91;;;7.61;94.92
58975;BME280;44751;52.236;5.178;2023-12-07T00:51:10;101805.34;;;7.66;95.19
58975;BME280;44751;52.236;5.178;2023-12-07T00:53:37;101807.00;;;7.57;95.19
58975;BME280;44751;52.236;5.178;2023-12-07T00:56:03;101805.84;;;7.50;95.73
58975;BME280;44751;52.236;5.178;2023-12-07T00:58:30;101809.78;;;7.46;95.21
58975;BME280;44751;52.236;5.178;2023-12-07T01:00:58;101809.91;;;7.44;95.13
58975;BME280;44751;52.236;5.178;2023-12-07T01:03:24;101808.66;;;7.48;94.70
58975;BME280;44751;52.236;5.178;2023-12-07T01:05:51;101815.81;;;7.38;95.22
58975;BME280;44751;52.236;5.178;2023-12-07T01:08:17;101809.91;;;7.44;94.92
58975;BME280;44751;52.236;5.178;2023-12-07T01:10:45;101813.72;;;7.10;95.78
58975;BME280;44751;52.236;5.178;2023-12-07T01:13:12;101813.31;;;7.15;95.63
58975;BME280;44751;52.236;5.178;2023-12-07T01:15:38;101804.19;;;7.28;95.79
58975;BME280;44751;52.236;5.178;2023-12-07T01:18:04;101807.47;;;7.31;95.60
58975;BME280;44751;52.236;5.178;2023-12-07T01:20:30;101808.25;;;7.22;95.67
58975;BME280;44751;52.236;5.178;2023-12-07T01:22:57;101806.25;;;7.14;95.68
58975;BME280;44751;52.236;5.178;2023-12-07T01:25:23;101807.09;;;7.15;95.58
58975;BME280;44751;52.236;5.178;2023-12-07T01:27:52;101814.25;;;7.35;95.29
58975;BME280;44751;52.236;5.178;2023-12-07T01:30:18;101816.69;;;7.39;94.70
58975;BME280;44751;52.236;5.178;2023-12-07T01:32:45;101809.19;;;7.11;95.39
58975;BME280;44751;52.236;5.178;2023-12-07T01:35:11;101807.50;;;7.10;95.08
58975;BME280;44751;52.236;5.178;2023-12-07T01:37:38;101810.69;;;7.04;95.08
58975;BME280;44751;52.236;5.178;2023-12-07T01:40:04;101815.28;;;7.13;95.26
58975;BME280;44751;52.236;5.178;2023-12-07T01:42:36;101812.78;;;7.00;95.49
58975;BME280;44751;52.236;5.178;2023-12-07T01:45:04;101819.84;;;7.01;95.15
58975;BME280;44751;52.236;5.178;2023-12-07T01:47:30;101817.84;;;6.93;95.54
58975;BME280;44751;52.236;5.178;2023-12-07T01:49:58;101811.47;;;7.16;94.71
58975;BME280;44751;52.236;5.178;2023-12-07T01:52:25;101820.56;;;7.25;94.63
58975;BME280;44751;52.236;5.178;2023-12-07T01:54:52;101816.66;;;7.07;94.53
58975;BME280;44751;52.236;5.178;2023-12-07T01:57:19;101822.22;;;6.94;94.99
58975;BME280;44751;52.236;5.178;2023-12-07T01:59:46;101816.91;;;7.04;94.36
58975;BME280;44751;52.236;5.178;2023-12-07T02:02:12;101814.41;;;7.13;95.23
58975;BME280;44751;52.236;5.178;2023-12-07T02:04:41;101817.13;;;6.70;95.36
58975;BME280;44751;52.236;5.178;2023-12-07T02:07:07;101813.25;;;7.05;95.65
58975;BME280;44751;52.236;5.178;2023-12-07T02:09:33;101820.97;;;6.98;95.31
58975;BME280;44751;52.236;5.178;2023-12-07T02:12:00;101820.53;;;6.93;95.29
58975;BME280;44751;52.236;5.178;2023-12-07T02:14:26;101821.28;;;7.05;95.38
58975;BME280;44751;52.236;5.178;2023-12-07T02:17:07;101819.91;;;7.11;95.19
58975;BME280;44751;52.236;5.178;2023-12-07T02:19:48;101815.84;;;7.17;94.80
58975;BME280;44751;52.236;5.178;2023-12-07T02:22:18;101807.28;;;7.23;94.91
58975;BME280;44751;52.236;5.178;2023-12-07T02:24:48;101809.41;;;7.29;94.86
58975;BME280;44751;52.236;5.178;2023-12-07T02:27:32;101814.25;;;7.35;94.79
58975;BME280;44751;52.236;5.178;2023-12-07T02:29:58;101811.53;;;7.26;95.01
58975;BME280;44751;52.236;5.178;2023-12-07T02:32:24;101806.50;;;7.11;95.52
58975;BME280;44751;52.236;5.178;2023-12-07T02:34:51;101810.50;;;7.17;95.59
58975;BME280;44751;52.236;5.178;2023-12-07T02:37:17;101812.91;;;7.20;95.42
58975;BME280;44751;52.236;5.178;2023-12-07T02:39:46;101803.97;;;7.41;94.97
58975;BME280;44751;52.236;5.178;2023-12-07T02:42:13;101808.38;;;7.52;95.18
58975;BME280;44751;52.236;5.178;2023-12-07T02:44:40;101812.03;;;7.41;95.31
58975;BME280;44751;52.236;5.178;2023-12-07T02:47:06;101798.91;;;7.16;95.50
58975;BME280;44751;52.236;5.178;2023-12-07T02:49:33;101803.34;;;7.27;95.78
58975;BME280;44751;52.236;5.178;2023-12-07T02:51:59;101795.81;;;7.21;94.98
58975;BME280;44751;52.236;5.178;2023-12-07T02:54:27;101801.63;;;7.26;95.07
58975;BME280;44751;52.236;5.178;2023-12-07T02:56:54;101800.63;;;7.17;94.57
58975;BME280;44751;52.236;5.178;2023-12-07T02:59:20;101805.50;;;7.12;95.18
58975;BME280;44751;52.236;5.178;2023-12-07T03:01:46;101803.59;;;7.24;95.69
58975;BME280;44751;52.236;5.178;2023-12-07T03:04:13;101808.72;;;7.27;95.31
58975;BME280;44751;52.236;5.178;2023-12-07T03:06:39;101799.19;;;7.13;95.18
58975;BME280;44751;52.236;5.178;2023-12-07T03:09:05;101798.88;;;7.06;95.05
58975;BME280;44751;52.236;5.178;2023-12-07T03:11:32;101800.81;;;7.04;95.66
58975;BME280;44751;52.236;5.178;2023-12-07T03:13:58;101809.25;;;7.00;95.88
58975;BME280;44751;52.236;5.178;2023-12-07T03:16:25;101810.69;;;7.04;95.89
58975;BME280;44751;52.236;5.178;2023-12-07T03:18:51;101806.31;;;7.03;95.85
58975;BME280;44751;52.236;5.178;2023-12-07T03:21:17;101801.63;;;6.95;95.83
58975;BME280;44751;52.236;5.178;2023-12-07T03:23:43;101810.25;;;6.98;96.08
58975;BME280;44751;52.236;5.178;2023-12-07T03:26:10;101821.41;;;7.04;96.16
58975;BME280;44751;52.236;5.178;2023-12-07T03:28:36;101820.28;;;6.96;95.97
58975;BME280;44751;52.236;5.178;2023-12-07T03:31:03;101828.69;;;7.13;95.66
58975;BME280;44751;52.236;5.178;2023-12-07T03:33:29;101813.91;;;6.97;96.57
58975;BME280;44751;52.236;5.178;2023-12-07T03:35:55;101820.16;;;7.08;95.96
58975;BME280;44751;52.236;5.178;2023-12-07T03:38:22;101824.34;;;7.22;95.70
58975;BME280;44751;52.236;5.178;2023-12-07T03:40:50;101828.06;;;7.31;95.78
58975;BME280;44751;52.236;5.178;2023-12-07T03:43:19;101827.25;;;7.09;95.43
58975;BME280;44751;52.236;5.178;2023-12-07T03:45:47;101819.84;;;7.01;96.35
58975;BME280;44751;52.236;5.178;2023-12-07T03:48:13;101823.03;;;7.06;95.67
58975;BME280;44751;52.236;5.178;2023-12-07T03:50:39;101819.16;;;6.78;95.74
58975;BME280;44751;52.236;5.178;2023-12-07T03:53:07;101816.53;;;6.88;96.58
58975;BME280;44751;52.236;5.178;2023-12-07T03:55:33;101828.25;;;6.87;96.31
58975;BME280;44751;52.236;5.178;2023-12-07T03:57:59;101820.56;;;6.61;96.57
58975;BME280;44751;52.236;5.178;2023-12-07T04:00:26;101824.63;;;6.76;96.28
58975;BME280;44751;52.236;5.178;2023-12-07T04:02:52;101819.53;;;6.73;96.63
58975;BME280;44751;52.236;5.178;2023-12-07T04:05:20;101814.78;;;6.44;96.85
58975;BME280;44751;52.236;5.178;2023-12-07T04:07:49;101810.03;;;6.69;96.83
58975;BME280;44751;52.236;5.178;2023-12-07T04:10:16;101812.28;;;6.85;97.78
58975;BME280;44751;52.236;5.178;2023-12-07T04:12:42;101818.22;;;6.89;96.67
58975;BME280;44751;52.236;5.178;2023-12-07T04:15:08;101816.22;;;6.81;96.64
58975;BME280;44751;52.236;5.178;2023-12-07T04:17:35;101814.22;;;6.83;96.42
58975;BME280;44751;52.236;5.178;2023-12-07T04:20:11;101808.41;;;6.78;96.80
58975;BME280;44751;52.236;5.178;2023-12-07T04:22:38;101808.47;;;6.88;96.83
58975;BME280;44751;52.236;5.178;2023-12-07T04:25:04;101813.72;;;6.89;96.36
58975;BME280;44751;52.236;5.178;2023-12-07T04:27:31;101821.16;;;6.85;96.72
58975;BME280;44751;52.236;5.178;2023-12-07T04:29:59;101823.84;;;6.64;96.41
58975;BME280;44751;52.236;5.178;2023-12-07T04:32:30;101809.41;;;6.77;96.44
58975;BME280;44751;52.236;5.178;2023-12-07T04:34:56;101810.66;;;6.72;95.90
58975;BME280;44751;52.236;5.178;2023-12-07T04:37:23;101804.28;;;6.74;95.94
58975;BME280;44751;52.236;5.178;2023-12-07T04:39:49;101811.22;;;6.76;96.19
58975;BME280;44751;52.236;5.178;2023-12-07T04:42:18;101814.09;;;6.63;96.08
58975;BME280;44751;52.236;5.178;2023-12-07T04:44:44;101816.88;;;6.62;96.44
58975;BME280;44751;52.236;5.178;2023-12-07T04:47:11;101812.44;;;6.51;96.45
58975;BME280;44751;52.236;5.178;2023-12-07T04:49:37;101817.56;;;6.75;96.07
58975;BME280;44751;52.236;5.178;2023-12-07T04:52:03;101814.69;;;6.67;96.69
58975;BME280;44751;52.236;5.178;2023-12-07T04:54:30;101814.66;;;6.78;96.22
58975;BME280;44751;52.236;5.178;2023-12-07T04:56:56;101817.50;;;6.65;96.59
58975;BME280;44751;52.236;5.178;2023-12-07T04:59:24;101810.06;;;6.90;96.35
58975;BME280;44751;52.236;5.178;2023-12-07T05:01:50;101804.56;;;6.92;96.29
58975;BME280;44751;52.236;5.178;2023-12-07T05:04:16;101802.53;;;6.84;97.00
58975;BME280;44751;52.236;5.178;2023-12-07T05:06:43;101805.81;;;6.88;97.02
58975;BME280;44751;52.236;5.178;2023-12-07T05:09:09;101799.84;;;6.63;96.85
58975;BME280;44751;52.236;5.178;2023-12-07T05:11:39;101801.00;;;6.91;96.33
58975;BME280;44751;52.236;5.178;2023-12-07T05:14:07;101805.22;;;6.84;96.72
58975;BME280;44751;52.236;5.178;2023-12-07T05:16:33;101801.88;;;6.92;96.89
58975;BME280;44751;52.236;5.178;2023-12-07T05:18:59;101804.63;;;7.02;95.84
58975;BME280;44751;52.236;5.178;2023-12-07T05:21:25;101797.88;;;6.86;96.17
58975;BME280;44751;52.236;5.178;2023-12-07T05:23:59;101795.44;;;6.62;96.29
58975;BME280;44751;52.236;5.178;2023-12-07T05:26:25;101787.41;;;6.83;96.36
58975;BME280;44751;52.236;5.178;2023-12-07T05:28:52;101796.13;;;6.75;96.42
58975;BME280;44751;52.236;5.178;2023-12-07T05:31:18;101792.13;;;6.91;96.49
58975;BME280;44751;52.236;5.178;2023-12-07T05:33:44;101797.09;;;6.95;95.61
58975;BME280;44751;52.236;5.178;2023-12-07T05:36:15;101789.97;;;6.84;96.14
58975;BME280;44751;52.236;5.178;2023-12-07T05:38:41;101796.50;;;6.92;95.74
58975;BME280;44751;52.236;5.178;2023-12-07T05:41:07;101787.09;;;6.76;96.76
58975;BME280;44751;52.236;5.178;2023-12-07T05:43:34;101777.72;;;6.70;98.40
58975;BME280;44751;52.236;5.178;2023-12-07T05:46:00;101777.41;;;6.85;96.72
58975;BME280;44751;52.236;5.178;2023-12-07T05:48:29;101781.47;;;7.01;97.46
58975;BME280;44751;52.236;5.178;2023-12-07T05:50:55;101774.72;;;6.85;97.43
58975;BME280;44751;52.236;5.178;2023-12-07T05:53:22;101771.00;;;6.76;96.96
58975;BME280;44751;52.236;5.178;2023-12-07T05:55:49;101777.59;;;6.72;97.26
58975;BME280;44751;52.236;5.178;2023-12-07T05:58:15;101780.81;;;6.66;96.79
58975;BME280;44751;52.236;5.178;2023-12-07T06:00:42;101774.97;;;6.61;97.47
58975;BME280;44751;52.236;5.178;2023-12-07T06:03:11;101779.03;;;6.76;97.98
58975;BME280;44751;52.236;5.178;2023-12-07T06:05:38;101783.03;;;6.82;98.44
58975;BME280;44751;52.236;5.178;2023-12-07T06:08:04;101793.50;;;7.06;97.83
58975;BME280;44751;52.236;5.178;2023-12-07T06:10:30;101788.50;;;7.23;97.63
58975;BME280;44751;52.236;5.178;2023-12-07T06:12:57;101807.47;;;7.31;98.09
58975;BME280;44751;52.236;5.178;2023-12-07T06:15:25;101799.53;;;7.30;99.56
58975;BME280;44751;52.236;5.178;2023-12-07T06:17:52;101799.72;;;7.38;99.62
58975;BME280;44751;52.236;5.178;2023-12-07T06:20:22;101790.88;;;6.95;100.00
58975;BME280;44751;52.236;5.178;2023-12-07T06:22:48;101798.66;;;6.98;100.00
58975;BME280;44751;52.236;5.178;2023-12-07T06:25:15;101805.41;;;6.71;100.00
58975;BME280;44751;52.236;5.178;2023-12-07T06:27:41;101808.03;;;6.82;100.00
58975;BME280;44751;52.236;5.178;2023-12-07T06:30:09;101807.41;;;6.57;100.00
58975;BME280;44751;52.236;5.178;2023-12-07T06:32:36;101807.13;;;6.93;100.00
58975;BME280;44751;52.236;5.178;2023-12-07T06:35:03;101822.16;;;7.06;100.00
58975;BME280;44751;52.236;5.178;2023-12-07T06:37:31;101811.63;;;6.93;100.00
58975;BME280;44751;52.236;5.178;2023-12-07T06:39:57;101813.31;;;7.15;100.00
58975;BME280;44751;52.236;5.178;2023-12-07T06:42:24;101810.69;;;7.04;100.00
58975;BME280;44751;52.236;5.178;2023-12-07T06:44:50;101813.72;;;6.89;100.00
58975;BME280;44751;52.236;5.178;2023-12-07T06:47:16;101804.50;;;6.82;100.00
58975;BME280;44751;52.236;5.178;2023-12-07T06:49:43;101803.50;;;6.83;100.00
58975;BME280;44751;52.236;5.178;2023-12-07T06:52:09;101817.03;;;7.24;100.00
58975;BME280;44751;52.236;5.178;2023-12-07T06:54:36;101828.91;;;7.53;100.00
58975;BME280;44751;52.236;5.178;2023-12-07T06:57:03;101813.47;;;7.23;100.00
58975;BME280;44751;52.236;5.178;2023-12-07T06:59:29;101812.84;;;7.31;100.00
58975;BME280;44751;52.236;5.178;2023-12-07T07:01:56;101797.50;;;6.91;100.00
58975;BME280;44751;52.236;5.178;2023-12-07T07:04:22;101798.47;;;6.90;100.00
58975;BME280;44751;52.236;5.178;2023-12-07T07:06:48;101799.25;;;7.02;100.00
58975;BME280;44751;52.236;5.178;2023-12-07T07:09:15;101797.31;;;7.14;100.00
58975;BME280;44751;52.236;5.178;2023-12-07T07:11:47;101798.44;;;7.11;100.00
58975;BME280;44751;52.236;5.178;2023-12-07T07:14:13;101805.16;;;7.27;100.00
58975;BME280;44751;52.236;5.178;2023-12-07T07:16:40;101805.72;;;7.20;100.00
58975;BME280;44751;52.236;5.178;2023-12-07T07:19:06;101808.28;;;7.32;100.00
58975;BME280;44751;52.236;5.178;2023-12-07T07:21:33;101798.06;;;7.16;100.00
58975;BME280;44751;52.236;5.178;2023-12-07T07:23:59;101806.31;;;7.03;100.00
58975;BME280;44751;52.236;5.178;2023-12-07T07:26:28;101810.56;;;7.05;100.00
58975;BME280;44751;52.236;5.178;2023-12-07T07:28:55;101813.63;;;7.22;100.00
58975;BME280;44751;52.236;5.178;2023-12-07T07:31:21;101814.09;;;7.27;100.00
58975;BME280;44751;52.236;5.178;2023-12-07T07:33:47;101814.44;;;7.44;100.00
58975;BME280;44751;52.236;5.178;2023-12-07T07:36:14;101820.56;;;7.56;100.00
58975;BME280;44751;52.236;5.178;2023-12-07T07:38:42;101807.63;;;7.40;100.00
58975;BME280;44751;52.236;5.178;2023-12-07T07:41:08;101811.75;;;7.44;100.00
58975;BME280;44751;52.236;5.178;2023-12-07T07:43:35;101808.03;;;7.35;100.00
58975;BME280;44751;52.236;5.178;2023-12-07T07:46:03;101806.50;;;6.90;100.00
58975;BME280;44751;52.236;5.178;2023-12-07T07:48:29;101813.44;;;7.14;100.00
58975;BME280;44751;52.236;5.178;2023-12-07T07:50:55;101809.31;;;7.09;100.00
58975;BME280;44751;52.236;5.178;2023-12-07T07:53:22;101818.84;;;6.92;100.00
58975;BME280;44751;52.236;5.178;2023-12-07T07:55:49;101824.19;;;6.71;100.00
58975;BME280;44751;52.236;5.178;2023-12-07T07:58:15;101832.88;;;6.84;100.00
58975;BME280;44751;52.236;5.178;2023-12-07T08:00:41;101832.56;;;6.99;100.00
58975;BME280;44751;52.236;5.178;2023-12-07T08:03:07;101819.41;;;6.75;100.00
58975;BME280;44751;52.236;5.178;2023-12-07T08:05:34;101812.78;;;7.00;100.00
58975;BME280;44751;52.236;5.178;2023-12-07T08:08:04;101808.78;;;7.16;100.00
58975;BME280;44751;52.236;5.178;2023-12-07T08:10:30;101814.25;;;7.35;100.00
58975;BME280;44751;52.236;5.178;2023-12-07T08:12:57;101818.59;;;7.58;100.00
58975;BME280;44751;52.236;5.178;2023-12-07T08:15:23;101817.34;;;7.31;100.00
58975;BME280;44751;52.236;5.178;2023-12-07T08:17:49;101819.16;;;7.30;100.00
58975;BME280;44751;52.236;5.178;2023-12-07T08:20:16;101820.81;;;7.43;100.00
58975;BME280;44751;52.236;5.178;2023-12-07T08:22:43;101817.00;;;7.45;100.00
58975;BME280;44751;52.236;5.178;2023-12-07T08:25:10;101810.41;;;7.59;100.00
58975;BME280;44751;52.236;5.178;2023-12-07T08:27:37;101825.88;;;7.46;100.00
58975;BME280;44751;52.236;5.178;2023-12-07T08:30:04;101823.53;;;7.62;100.00
58975;BME280;44751;52.236;5.178;2023-12-07T08:32:33;101818.25;;;7.41;100.00
58975;BME280;44751;52.236;5.178;2023-12-07T08:34:59;101827.34;;;7.60;100.00
58975;BME280;44751;52.236;5.178;2023-12-07T08:37:25;101823.38;;;7.54;100.00
58975;BME280;44751;52.236;5.178;2023-12-07T08:39:52;101809.47;;;7.39;100.00
58975;BME280;44751;52.236;5.178;2023-12-07T08:42:18;101807.56;;;7.51;100.00
58975;BME280;44751;52.236;5.178;2023-12-07T08:44:44;101812.50;;;7.56;100.00
58975;BME280;44751;52.236;5.178;2023-12-07T08:47:10;101814.44;;;7.44;100.00
58975;BME280;44751;52.236;5.178;2023-12-07T08:49:41;101824.44;;;7.42;100.00
58975;BME280;44751;52.236;5.178;2023-12-07T08:52:07;101813.97;;;7.70;100.00
58975;BME280;44751;52.236;5.178;2023-12-07T08:54:33;101808.38;;;7.93;100.00
58975;BME280;44751;52.236;5.178;2023-12-07T08:57:01;101800.66;;;7.68;100.00
58975;BME280;44751;52.236;5.178;2023-12-07T08:59:26;101807.88;;;7.68;100.00
58975;BME280;44751;52.236;5.178;2023-12-07T09:01:52;101815.53;;;7.31;100.00
58975;BME280;44751;52.236;5.178;2023-12-07T09:04:19;101806.13;;;7.47;100.00
58975;BME280;44751;52.236;5.178;2023-12-07T09:06:45;101800.66;;;7.68;100.00
58975;BME280;44751;52.236;5.178;2023-12-07T09:09:11;101793.47;;;7.69;100.00
58975;BME280;44751;52.236;5.178;2023-12-07T09:11:38;101794.88;;;7.63;100.00
58975;BME280;44751;52.236;5.178;2023-12-07T09:14:04;101790.19;;;7.55;100.00
58975;BME280;44751;52.236;5.178;2023-12-07T09:16:30;101785.63;;;7.56;100.00
58975;BME280;44751;52.236;5.178;2023-12-07T09:18:59;101790.50;;;7.72;100.00
58975;BME280;44751;52.236;5.178;2023-12-07T09:21:26;101778.53;;;7.45;100.00
58975;BME280;44751;52.236;5.178;2023-12-07T09:23:53;101780.59;;;7.72;100.00
58975;BME280;44751;52.236;5.178;2023-12-07T09:26:19;101786.91;;;8.03;100.00
58975;BME280;44751;52.236;5.178;2023-12-07T09:28:46;101792.25;;;7.93;100.00
58975;BME280;44751;52.236;5.178;2023-12-07T09:31:12;101796.50;;;7.95;100.00
58975;BME280;44751;52.236;5.178;2023-12-07T09:33:40;101785.66;;;8.17;100.00
58975;BME280;44751;52.236;5.178;2023-12-07T09:36:06;101799.22;;;8.05;100.00
58975;BME280;44751;52.236;5.178;2023-12-07T09:38:35;101800.44;;;7.91;100.00
58975;BME280;44751;52.236;5.178;2023-12-07T09:41:02;101808.75;;;7.78;100.00
58975;BME280;44751;52.236;5.178;2023-12-07T09:43:34;101815.59;;;7.51;100.00
58975;BME280;44751;52.236;5.178;2023-12-07T09:46:01;101808.22;;;7.43;100.00
58975;BME280;44751;52.236;5.178;2023-12-07T09:48:27;101807.09;;;7.46;100.00
58975;BME280;44751;52.236;5.178;2023-12-07T09:50:57;101796.44;;;7.75;100.00
58975;BME280;44751;52.236;5.178;2023-12-07T09:53:26;101798.19;;;7.96;100.00
58975;BME280;44751;52.236;5.178;2023-12-07T09:55:56;101793.53;;;7.47;100.00
58975;BME280;44751;52.236;5.178;2023-12-07T09:58:22;101784.47;;;7.39;100.00
58975;BME280;44751;52.236;5.178;2023-12-07T10:00:48;101783.00;;;7.25;100.00
58975;BME280;44751;52.236;5.178;2023-12-07T10:03:21;101784.56;;;7.78;100.00
58975;BME280;44751;52.236;5.178;2023-12-07T10:05:53;101776.66;;;7.67;100.00
58975;BME280;44751;52.236;5.178;2023-12-07T10:08:29;101773.81;;;7.68;100.00
58975;BME280;44751;52.236;5.178;2023-12-07T10:11:05;101771.69;;;7.62;100.00
58975;BME280;44751;52.236;5.178;2023-12-07T10:13:32;101766.38;;;7.82;100.00
58975;BME280;44751;52.236;5.178;2023-12-07T10:16:05;101748.56;;;8.10;100.00
58975;BME280;44751;52.236;5.178;2023-12-07T10:18:32;101746.88;;;7.48;100.00
58975;BME280;44751;52.236;5.178;2023-12-07T10:21:01;101748.78;;;7.58;100.00
58975;BME280;44751;52.236;5.178;2023-12-07T10:23:27;101749.06;;;7.65;100.00
58975;BME280;44751;52.236;5.178;2023-12-07T10:25:56;101745.84;;;7.81;100.00
58975;BME280;44751;52.236;5.178;2023-12-07T10:28:24;101741.50;;;8.19;100.00
58975;BME280;44751;52.236;5.178;2023-12-07T10:30:50;101749.28;;;8.03;100.00
58975;BME280;44751;52.236;5.178;2023-12-07T10:33:16;101742.06;;;8.23;100.00
58975;BME280;44751;52.236;5.178;2023-12-07T10:35:46;101726.66;;;7.44;100.00
58975;BME280;44751;52.236;5.178;2023-12-07T10:38:13;101734.41;;;7.79;100.00
58975;BME280;44751;52.236;5.178;2023-12-07T10:40:39;101732.41;;;7.61;100.00
58975;BME280;44751;52.236;5.178;2023-12-07T10:43:07;101729.72;;;7.81;100.00
58975;BME280;44751;52.236;5.178;2023-12-07T10:45:34;101723.66;;;7.88;100.00
58975;BME280;44751;52.236;5.178;2023-12-07T10:48:05;101728.28;;;7.57;100.00
58975;BME280;44751;52.236;5.178;2023-12-07T10:50:34;101721.34;;;7.64;100.00
58975;BME280;44751;52.236;5.178;2023-12-07T10:53:21;101723.38;;;7.82;100.00
58975;BME280;44751;52.236;5.178;2023-12-07T10:55:50;101729.63;;;7.00;100.00
58975;BME280;44751;52.236;5.178;2023-12-07T10:58:18;101722.63;;;7.60;100.00
58975;BME280;44751;52.236;5.178;2023-12-07T11:00:45;101718.44;;;8.07;100.00
58975;BME280;44751;52.236;5.178;2023-12-07T11:03:15;101706.56;;;8.19;100.00
58975;BME280;44751;52.236;5.178;2023-12-07T11:05:46;101703.13;;;8.47;100.00
58975;BME280;44751;52.236;5.178;2023-12-07T11:08:16;101696.94;;;7.97;100.00
58975;BME280;44751;52.236;5.178;2023-12-07T11:10:50;101693.53;;;7.95;100.00
58975;BME280;44751;52.236;5.178;2023-12-07T11:13:29;101689.00;;;8.25;100.00
58975;BME280;44751;52.236;5.178;2023-12-07T11:15:56;101692.38;;;8.27;100.00
58975;BME280;44751;52.236;5.178;2023-12-07T11:18:26;101679.81;;;7.98;100.00
58975;BME280;44751;52.236;5.178;2023-12-07T11:20:52;101675.03;;;8.11;100.00
58975;BME280;44751;52.236;5.178;2023-12-07T11:23:19;101670.94;;;8.07;100.00
58975;BME280;44751;52.236;5.178;2023-12-07T11:25:46;101669.22;;;7.96;100.00
58975;BME280;44751;52.236;5.178;2023-12-07T11:28:13;101668.19;;;7.48;100.00
58975;BME280;44751;52.236;5.178;2023-12-07T11:30:44;101667.25;;;8.08;100.00
58975;BME280;44751;52.236;5.178;2023-12-07T11:33:10;101665.97;;;8.22;100.00
58975;BME280;44751;52.236;5.178;2023-12-07T11:38:22;101651.81;;;8.10;100.00
58975;BME280;44751;52.236;5.178;2023-12-07T11:40:48;101651.25;;;8.17;100.00
58975;BME280;44751;52.236;5.178;2023-12-07T11:46:14;101650.13;;;7.99;100.00
58975;BME280;44751;52.236;5.178;2023-12-07T11:48:45;101659.16;;;8.18;100.00
58975;BME280;44751;52.236;5.178;2023-12-07T11:51:12;101651.41;;;8.05;100.00
58975;BME280;44751;52.236;5.178;2023-12-07T11:53:38;101653.78;;;8.28;100.00
58975;BME280;44751;52.236;5.178;2023-12-07T11:56:06;101646.97;;;8.34;100.00
58975;BME280;44751;52.236;5.178;2023-12-07T11:58:33;101649.13;;;7.81;100.00
58975;BME280;44751;52.236;5.178;2023-12-07T12:01:00;101645.47;;;7.92;100.00
58975;BME280;44751;52.236;5.178;2023-12-07T12:03:27;101629.63;;;8.08;100.00
58975;BME280;44751;52.236;5.178;2023-12-07T12:05:57;101621.13;;;8.03;100.00
58975;BME280;44751;52.236;5.178;2023-12-07T12:08:23;101617.97;;;8.27;100.00
58975;BME280;44751;52.236;5.178;2023-12-07T12:10:50;101613.50;;;7.69;100.00
58975;BME280;44751;52.236;5.178;2023-12-07T12:13:18;101608.94;;;8.09;100.00
58975;BME280;44751;52.236;5.178;2023-12-07T12:15:44;101603.56;;;8.09;100.00
58975;BME280;44751;52.236;5.178;2023-12-07T12:18:12;101602.75;;;7.79;100.00
58975;BME280;44751;52.236;5.178;2023-12-07T12:20:41;101599.47;;;8.14;100.00
58975;BME280;44751;52.236;5.178;2023-12-07T12:23:08;101606.22;;;8.29;100.00
58975;BME280;44751;52.236;5.178;2023-12-07T12:25:35;101603.19;;;8.51;100.00
58975;BME280;44751;52.236;5.178;2023-12-07T12:28:02;101601.47;;;8.70;100.00
58975;BME280;44751;52.236;5.178;2023-12-07T12:30:36;101594.72;;;8.56;100.00
58975;BME280;44751;52.236;5.178;2023-12-07T12:33:02;101591.88;;;8.48;100.00
58975;BME280;44751;52.236;5.178;2023-12-07T12:35:29;101580.31;;;8.37;100.00
58975;BME280;44751;52.236;5.178;2023-12-07T12:37:56;101573.13;;;8.28;100.00
58975;BME280;44751;52.236;5.178;2023-12-07T12:40:22;101568.16;;;8.71;100.00
58975;BME280;44751;52.236;5.178;2023-12-07T12:42:50;101561.25;;;8.21;100.00
58975;BME280;44751;52.236;5.178;2023-12-07T12:45:18;101544.38;;;8.29;100.00
58975;BME280;44751;52.236;5.178;2023-12-07T12:47:45;101542.41;;;7.73;100.00
58975;BME280;44751;52.236;5.178;2023-12-07T12:50:12;101536.00;;;8.42;100.00
58975;BME280;44751;52.236;5.178;2023-12-07T12:52:58;101531.44;;;8.14;100.00
58975;BME280;44751;52.236;5.178;2023-12-07T12:55:27;101521.91;;;7.72;100.00
58975;BME280;44751;52.236;5.178;2023-12-07T12:57:55;101525.38;;;8.40;100.00
58975;BME280;44751;52.236;5.178;2023-12-07T13:00:21;101515.19;;;8.44;100.00
58975;BME280;44751;52.236;5.178;2023-12-07T13:02:50;101499.81;;;8.64;100.00